Terminal Aerodrome Forecast
Issued by NWS

Home | Current Version | Previous Version | Text Only | Print | Product List | Glossary On
Versions: 1 2 3 4 5 6 7 8 9 10 11 12 13 14 15 16
000
FTUS43 KPAH 241720
TAFCGI
TAF
KCGI 241720Z 2418/2518 21020G30KT P6SM BKN040
      TEMPO 2418/2421 5SM -SHRA BKN025
     FM242200 25011G16KT P6SM BKN040
     FM250300 28013G18KT P6SM SCT100
     FM251400 31012KT P6SM SCT250=

USA.gov is the U.S. government's official web portal to all federal, state and local government web resources and services.